Terminal Aerodrome Forecast
Issued by NWS Mt. Holly, NJ

Home | Current Version | Previous Version | Text Only | Print | Product List | Glossary On
Versions: 1 2 3 4 5 6 7 8 9 10 11 12 13 14 15 16 17
750
FTUS41 KPHI 242340
TAFRDG
TAF
KRDG 242340Z 2500/2524 17007KT P6SM FEW040
     FM250300 18006KT P6SM BKN015
     FM250900 18005KT 2SM BR OVC008
     FM251600 18011KT 6SM BR BKN015
      TEMPO 2519/2521 30017G32KT 4SM +SHRA OVC020
     FM252100 27012KT P6SM VCSH BKN035=

USA.gov is the U.S. government's official web portal to all federal, state and local government web resources and services.